Time;durP1;ratioP1;P1;durP2;ratioP2;P2;SDS_P1;SDS_P2;PMS_P1;PMS_P2;Temp;Humidity;BMP_temperature;BMP_pressure;BME280_temperature;BME280_humidity;BME280_pressure;Samples;Min_cycle;Max_cycle;Signal;HPM_P1;HPM_P2
2021/12/27 00:01:25;;;;;;;21.20;13.50;;;;;;;;;;4828732;29;20146;-72
2021/12/27 00:03:56;;;;;;;18.48;13.15;;;;;;;;;;4822101;29;20112;-72
2021/12/27 00:06:23;;;;;;;17.63;11.10;;;;;;;;;;4818597;29;20053;-71
2021/12/27 00:08:51;;;;;;;19.05;13.13;;;;;;;;;;4822482;29;20041;-71
2021/12/27 00:11:19;;;;;;;20.90;13.23;;;;;;;;;;4819044;29;20831;-71
2021/12/27 00:13:48;;;;;;;18.80;12.98;;;;;;;;;;4817822;29;20570;-70
2021/12/27 00:16:15;;;;;;;19.30;13.43;;;;;;;;;;4821332;29;20410;-71
2021/12/27 00:18:43;;;;;;;21.83;13.68;;;;;;;;;;4828548;29;20050;-72
2021/12/27 00:21:10;;;;;;;23.08;14.55;;;;;;;;;;4825208;29;20056;-71
2021/12/27 00:23:38;;;;;;;17.92;13.93;;;;;;;;;;4821132;29;20570;-70
2021/12/27 00:26:05;;;;;;;19.15;13.35;;;;;;;;;;4825349;29;20495;-71
2021/12/27 00:28:33;;;;;;;20.92;13.98;;;;;;;;;;4819688;29;20137;-71
2021/12/27 00:31:02;;;;;;;22.05;14.43;;;;;;;;;;4825665;24;20141;-89
2021/12/27 00:33:29;;;;;;;18.70;12.68;;;;;;;;;;4815851;29;20053;-89
2021/12/27 00:35:57;;;;;;;15.30;12.38;;;;;;;;;;4828726;29;20046;-89
2021/12/27 00:38:24;;;;;;;18.98;13.98;;;;;;;;;;4793454;29;20091;-90
2021/12/27 00:40:52;;;;;;;20.15;13.75;;;;;;;;;;4813942;29;20057;-89
2021/12/27 00:43:20;;;;;;;18.77;13.18;;;;;;;;;;4810464;29;20088;-89
2021/12/27 00:45:47;;;;;;;18.50;13.02;;;;;;;;;;4821690;29;20166;-89
2021/12/27 00:48:17;;;;;;;21.98;14.43;;;;;;;;;;4820901;29;20066;-89
2021/12/27 00:50:45;;;;;;;19.80;13.00;;;;;;;;;;4812083;29;20057;-89
2021/12/27 00:53:16;;;;;;;20.33;13.40;;;;;;;;;;4827450;29;20531;-89
2021/12/27 00:55:45;;;;;;;19.05;12.55;;;;;;;;;;4828308;29;20054;-90
2021/12/27 00:58:12;;;;;;;19.20;13.32;;;;;;;;;;4816796;29;20136;-89
2021/12/27 01:00:39;;;;;;;16.92;11.95;;;;;;;;;;4809929;29;20058;-89
2021/12/27 01:03:07;;;;;;;19.08;13.27;;;;;;;;;;4821790;29;20043;-89
2021/12/27 01:05:34;;;;;;;21.45;14.15;;;;;;;;;;4833096;29;20041;-89
2021/12/27 01:08:02;;;;;;;18.35;13.48;;;;;;;;;;4811417;29;20111;-89
2021/12/27 01:16:11;;;;;;;18.83;13.02;;;;;;;;;;4853865;29;20037;-89
2021/12/27 01:18:48;;;;;;;16.33;12.65;;;;;;;;;;4838213;29;20065;-89
2021/12/27 01:21:17;;;;;;;18.10;13.23;;;;;;;;;;4809020;29;20103;-89
2021/12/27 01:23:45;;;;;;;21.77;15.00;;;;;;;;;;4794176;29;20061;-89
2021/12/27 01:26:14;;;;;;;21.15;14.65;;;;;;;;;;4799201;29;20181;-89
2021/12/27 01:28:41;;;;;;;20.40;13.57;;;;;;;;;;4810430;29;20043;-90
2021/12/27 01:31:10;;;;;;;22.25;15.52;;;;;;;;;;4830360;29;20034;-89
2021/12/27 01:33:38;;;;;;;22.42;14.93;;;;;;;;;;4807979;29;20122;-89
2021/12/27 01:36:06;;;;;;;23.10;14.80;;;;;;;;;;4818490;29;20565;-89
2021/12/27 01:38:37;;;;;;;23.35;16.10;;;;;;;;;;4823245;29;20042;-90
2021/12/27 01:41:09;;;;;;;23.08;15.45;;;;;;;;;;4820634;29;20508;-89
2021/12/27 01:43:38;;;;;;;27.33;15.85;;;;;;;;;;4808544;29;20057;-90
2021/12/27 01:46:07;;;;;;;27.70;16.80;;;;;;;;;;4819208;29;20061;-89
2021/12/27 01:48:38;;;;;;;26.92;16.77;;;;;;;;;;4810228;29;20133;-89
2021/12/27 01:51:09;;;;;;;24.55;17.15;;;;;;;;;;4827207;29;20556;-89
2021/12/27 01:53:37;;;;;;;24.48;16.30;;;;;;;;;;4827033;29;20580;-89
2021/12/27 01:56:05;;;;;;;26.40;17.33;;;;;;;;;;4820262;29;20078;-89
2021/12/27 01:58:33;;;;;;;23.13;16.17;;;;;;;;;;4820018;29;20050;-89
2021/12/27 02:01:01;;;;;;;24.65;17.08;;;;;;;;;;4826945;29;20070;-89
2021/12/27 02:03:30;;;;;;;26.33;17.45;;;;;;;;;;4834824;29;20050;-89
2021/12/27 02:05:58;;;;;;;26.33;18.42;;;;;;;;;;4815154;29;20059;-90
2021/12/27 02:08:25;;;;;;;28.95;17.17;;;;;;;;;;4837559;29;20061;-90
2021/12/27 02:10:56;;;;;;;26.33;17.55;;;;;;;;;;4831424;29;20060;-90
2021/12/27 02:13:23;;;;;;;29.13;18.80;;;;;;;;;;4820297;29;20038;-89
2021/12/27 02:15:51;;;;;;;25.25;17.60;;;;;;;;;;4816399;29;20042;-90
2021/12/27 02:18:18;;;;;;;30.83;19.30;;;;;;;;;;4807079;29;20034;-88
2021/12/27 02:20:46;;;;;;;26.42;16.83;;;;;;;;;;4809770;29;20117;-89
2021/12/27 02:23:18;;;;;;;29.63;19.70;;;;;;;;;;4826799;29;20047;-89
2021/12/27 02:25:46;;;;;;;28.88;19.10;;;;;;;;;;4811505;29;20054;-89
2021/12/27 02:28:14;;;;;;;29.85;19.55;;;;;;;;;;4810797;29;20039;-89
2021/12/27 02:30:43;;;;;;;28.17;19.33;;;;;;;;;;4811457;29;20045;-89
2021/12/27 02:33:11;;;;;;;37.25;20.70;;;;;;;;;;4814670;29;20077;-89
2021/12/27 02:35:40;;;;;;;28.05;18.92;;;;;;;;;;4817047;29;20054;-89
2021/12/27 02:38:10;;;;;;;28.88;19.17;;;;;;;;;;4793452;29;20062;-89
2021/12/27 02:40:39;;;;;;;30.48;18.70;;;;;;;;;;4827809;29;20050;-89
2021/12/27 02:43:08;;;;;;;31.13;19.83;;;;;;;;;;4811187;29;20131;-90
2021/12/27 02:45:37;;;;;;;30.70;19.48;;;;;;;;;;4802434;29;20118;-89
2021/12/27 02:48:05;;;;;;;29.63;19.30;;;;;;;;;;4805170;29;20054;-89
2021/12/27 02:50:33;;;;;;;28.48;19.13;;;;;;;;;;4809904;29;20042;-89
2021/12/27 02:53:01;;;;;;;33.45;19.88;;;;;;;;;;4805677;29;20051;-89
2021/12/27 02:55:29;;;;;;;30.40;19.88;;;;;;;;;;4808164;29;20066;-89
2021/12/27 02:57:56;;;;;;;33.42;20.63;;;;;;;;;;4823024;29;20046;-89
2021/12/27 03:00:50;;;;;;;28.63;18.83;;;;;;;;;;4816538;29;20126;-89
2021/12/27 03:03:17;;;;;;;30.55;18.83;;;;;;;;;;4807081;29;20054;-89
2021/12/27 03:05:45;;;;;;;26.10;18.65;;;;;;;;;;4824080;29;20600;-89
2021/12/27 03:08:16;;;;;;;29.48;20.15;;;;;;;;;;4802273;29;20061;-89
2021/12/27 03:10:45;;;;;;;31.52;18.92;;;;;;;;;;4811345;29;20054;-89
2021/12/27 03:13:16;;;;;;;24.60;16.85;;;;;;;;;;4823412;29;20095;-89
2021/12/27 03:15:44;;;;;;;32.72;20.25;;;;;;;;;;4807140;29;20137;-89
2021/12/27 03:18:12;;;;;;;22.52;14.88;;;;;;;;;;4836178;24;20061;-72
2021/12/27 03:20:41;;;;;;;27.63;18.13;;;;;;;;;;4822839;29;20049;-73
2021/12/27 03:23:08;;;;;;;27.83;17.63;;;;;;;;;;4803096;29;20051;-72
2021/12/27 03:25:35;;;;;;;28.05;19.55;;;;;;;;;;4817139;29;20074;-72
2021/12/27 03:28:03;;;;;;;26.67;17.05;;;;;;;;;;4810183;29;20042;-72
2021/12/27 03:30:30;;;;;;;29.60;20.45;;;;;;;;;;4806558;29;20074;-72
2021/12/27 03:32:58;;;;;;;27.52;18.52;;;;;;;;;;4803153;29;20586;-72
2021/12/27 03:35:28;;;;;;;28.80;18.25;;;;;;;;;;4832153;29;20097;-72
2021/12/27 03:37:57;;;;;;;32.45;20.38;;;;;;;;;;4803544;29;20142;-72
2021/12/27 03:40:25;;;;;;;29.65;19.42;;;;;;;;;;4804565;29;20174;-72
2021/12/27 03:42:53;;;;;;;28.98;17.85;;;;;;;;;;4816960;29;20406;-73
2021/12/27 03:45:22;;;;;;;31.08;18.92;;;;;;;;;;4801691;29;20554;-72
2021/12/27 03:47:49;;;;;;;27.30;18.52;;;;;;;;;;4802113;29;20076;-72
2021/12/27 03:50:17;;;;;;;23.27;18.05;;;;;;;;;;4803068;29;20046;-72
2021/12/27 03:52:45;;;;;;;32.97;21.02;;;;;;;;;;4815509;29;20053;-72
2021/12/27 03:55:13;;;;;;;28.60;18.88;;;;;;;;;;4806400;29;20053;-72
2021/12/27 03:57:42;;;;;;;26.40;18.63;;;;;;;;;;4804116;29;20119;-72
2021/12/27 04:02:43;;;;;;;29.73;17.90;;;;;;;;;;4798474;29;20401;-72
2021/12/27 04:05:30;;;;;;;29.05;18.23;;;;;;;;;;4803246;29;20154;-72
2021/12/27 04:08:18;;;;;;;27.98;17.42;;;;;;;;;;4803668;29;20058;-72
2021/12/27 04:10:46;;;;;;;24.02;17.20;;;;;;;;;;4800261;29;20092;-72
2021/12/27 04:13:18;;;;;;;24.98;16.88;;;;;;;;;;4807401;29;20049;-72
2021/12/27 04:15:45;;;;;;;27.17;17.83;;;;;;;;;;4802389;29;20053;-72
2021/12/27 04:18:13;;;;;;;26.88;18.42;;;;;;;;;;4802686;29;20312;-72
2021/12/27 04:20:40;;;;;;;28.23;19.13;;;;;;;;;;4820543;29;20523;-72
2021/12/27 04:23:08;;;;;;;29.20;18.95;;;;;;;;;;4801806;29;20529;-72
2021/12/27 04:25:35;;;;;;;28.52;19.63;;;;;;;;;;4802419;29;20393;-71
2021/12/27 04:28:03;;;;;;;27.10;18.73;;;;;;;;;;4802291;29;20563;-72
2021/12/27 04:30:30;;;;;;;28.27;19.70;;;;;;;;;;4802062;29;20141;-72
2021/12/27 04:32:58;;;;;;;28.40;19.48;;;;;;;;;;4802172;29;20055;-72
2021/12/27 04:35:29;;;;;;;30.10;18.50;;;;;;;;;;4799428;29;20043;-73
2021/12/27 04:37:56;;;;;;;32.42;19.33;;;;;;;;;;4805238;29;20047;-73
2021/12/27 04:40:24;;;;;;;28.02;17.73;;;;;;;;;;4805049;29;20397;-73
2021/12/27 04:42:54;;;;;;;30.10;20.20;;;;;;;;;;4801285;29;20046;-73
2021/12/27 04:45:21;;;;;;;28.10;18.70;;;;;;;;;;4802015;29;20143;-73
2021/12/27 04:47:49;;;;;;;29.92;20.95;;;;;;;;;;4804681;29;20038;-73
2021/12/27 04:50:16;;;;;;;28.52;18.65;;;;;;;;;;4800724;29;20483;-73
2021/12/27 04:52:45;;;;;;;27.40;18.08;;;;;;;;;;4796371;29;20184;-73
2021/12/27 04:55:12;;;;;;;29.30;19.52;;;;;;;;;;4801034;29;20063;-73
2021/12/27 04:57:40;;;;;;;30.15;20.73;;;;;;;;;;4800892;29;20125;-73
2021/12/27 05:00:07;;;;;;;31.60;20.30;;;;;;;;;;4799966;29;20511;-73
2021/12/27 05:02:35;;;;;;;29.40;18.42;;;;;;;;;;4813350;29;20107;-73
2021/12/27 05:05:02;;;;;;;28.98;19.55;;;;;;;;;;4803190;29;20133;-73
2021/12/27 05:07:30;;;;;;;31.55;20.90;;;;;;;;;;4800727;29;20149;-73
2021/12/27 05:09:57;;;;;;;29.35;20.73;;;;;;;;;;4798123;29;20082;-73
2021/12/27 05:12:25;;;;;;;25.98;18.20;;;;;;;;;;4801066;29;20138;-73
2021/12/27 05:14:53;;;;;;;32.95;19.95;;;;;;;;;;4805584;29;20043;-73
2021/12/27 05:17:21;;;;;;;27.88;19.40;;;;;;;;;;4801654;29;20095;-73
2021/12/27 05:19:48;;;;;;;27.38;18.65;;;;;;;;;;4814992;29;20462;-73
2021/12/27 05:22:15;;;;;;;27.05;18.67;;;;;;;;;;4812728;29;20039;-73
2021/12/27 05:24:43;;;;;;;30.40;20.80;;;;;;;;;;4806228;29;20057;-73
2021/12/27 05:27:10;;;;;;;33.20;20.83;;;;;;;;;;4798466;29;20084;-73
2021/12/27 05:29:38;;;;;;;32.10;20.52;;;;;;;;;;4801234;29;20129;-73
2021/12/27 05:32:05;;;;;;;31.95;20.95;;;;;;;;;;4798734;29;20134;-73
2021/12/27 05:34:35;;;;;;;33.45;21.13;;;;;;;;;;4806160;29;20042;-72
2021/12/27 05:37:03;;;;;;;28.85;20.15;;;;;;;;;;4800110;29;20043;-73
2021/12/27 05:39:31;;;;;;;30.80;20.30;;;;;;;;;;4806975;29;20039;-73
2021/12/27 05:41:59;;;;;;;33.75;21.65;;;;;;;;;;4798888;29;20047;-73
2021/12/27 05:44:26;;;;;;;31.92;20.80;;;;;;;;;;4803207;29;20070;-73
2021/12/27 05:46:54;;;;;;;38.25;21.83;;;;;;;;;;4801118;29;20129;-72
2021/12/27 05:49:22;;;;;;;38.10;22.55;;;;;;;;;;4798936;29;20142;-72
2021/12/27 05:51:50;;;;;;;33.40;20.83;;;;;;;;;;4798978;29;20130;-73
2021/12/27 05:54:19;;;;;;;31.67;20.33;;;;;;;;;;4798188;29;20057;-73
2021/12/27 05:56:47;;;;;;;32.00;21.38;;;;;;;;;;4802071;29;20121;-72
2021/12/27 05:59:16;;;;;;;34.55;20.67;;;;;;;;;;4800349;29;20045;-73
2021/12/27 06:01:44;;;;;;;32.42;21.67;;;;;;;;;;4798981;29;20047;-72
2021/12/27 06:04:12;;;;;;;30.50;20.83;;;;;;;;;;4802626;29;20051;-72
2021/12/27 06:06:40;;;;;;;32.28;20.70;;;;;;;;;;4800176;29;20285;-72
2021/12/27 06:09:08;;;;;;;32.83;21.15;;;;;;;;;;4801267;29;20560;-72
2021/12/27 06:11:35;;;;;;;30.67;20.95;;;;;;;;;;4800364;29;20038;-72
2021/12/27 06:14:02;;;;;;;34.53;22.20;;;;;;;;;;4801428;29;20073;-73
2021/12/27 06:16:30;;;;;;;36.58;21.92;;;;;;;;;;4804278;29;20078;-72
2021/12/27 06:18:57;;;;;;;30.60;20.60;;;;;;;;;;4801224;29;20066;-72
2021/12/27 06:21:24;;;;;;;33.63;21.67;;;;;;;;;;4795659;29;20573;-72
2021/12/27 06:23:52;;;;;;;38.10;22.65;;;;;;;;;;4798276;29;20047;-72
2021/12/27 06:26:19;;;;;;;32.25;21.88;;;;;;;;;;4800632;29;20047;-72
2021/12/27 06:28:47;;;;;;;35.35;22.77;;;;;;;;;;4801835;29;20051;-72
2021/12/27 06:31:14;;;;;;;35.00;23.67;;;;;;;;;;4838775;24;20058;-74
2021/12/27 06:33:42;;;;;;;35.28;22.83;;;;;;;;;;4820212;29;20102;-74
2021/12/27 06:36:09;;;;;;;34.08;22.05;;;;;;;;;;4818909;29;20519;-74
2021/12/27 06:38:36;;;;;;;36.47;22.70;;;;;;;;;;4817735;29;20051;-74
2021/12/27 06:41:04;;;;;;;39.70;23.63;;;;;;;;;;4805317;29;20111;-74
2021/12/27 06:43:32;;;;;;;37.70;23.17;;;;;;;;;;4803694;29;20484;-74
2021/12/27 06:45:59;;;;;;;37.20;23.10;;;;;;;;;;4800458;29;20145;-74
2021/12/27 06:48:27;;;;;;;36.28;22.40;;;;;;;;;;4803396;29;20590;-74
2021/12/27 06:50:55;;;;;;;35.42;22.80;;;;;;;;;;4806154;29;20133;-74
2021/12/27 06:53:28;;;;;;;39.05;23.42;;;;;;;;;;4799730;29;20403;-73
2021/12/27 06:55:56;;;;;;;39.45;22.15;;;;;;;;;;4804312;29;20137;-73
2021/12/27 06:58:23;;;;;;;35.28;21.80;;;;;;;;;;4804230;29;20192;-74
2021/12/27 07:00:51;;;;;;;35.38;21.67;;;;;;;;;;4800948;29;20130;-74
2021/12/27 07:03:19;;;;;;;38.22;23.98;;;;;;;;;;4801159;29;20051;-74
2021/12/27 07:05:48;;;;;;;39.88;22.58;;;;;;;;;;4802407;29;20054;-74
2021/12/27 07:08:18;;;;;;;36.60;21.15;;;;;;;;;;4801341;29;20042;-74
2021/12/27 07:10:46;;;;;;;43.35;24.80;;;;;;;;;;4801055;29;20086;-74
2021/12/27 07:13:13;;;;;;;43.45;23.38;;;;;;;;;;4804981;29;20039;-74
2021/12/27 07:15:44;;;;;;;44.00;23.60;;;;;;;;;;4805268;29;20481;-74
2021/12/27 07:18:13;;;;;;;38.03;23.08;;;;;;;;;;4811388;29;20449;-73
2021/12/27 07:20:40;;;;;;;40.90;22.33;;;;;;;;;;4818831;29;20077;-73
2021/12/27 07:23:08;;;;;;;40.33;23.75;;;;;;;;;;4804666;29;20069;-74
2021/12/27 07:25:35;;;;;;;43.38;23.77;;;;;;;;;;4799257;29;20294;-73
2021/12/27 07:28:03;;;;;;;43.35;24.58;;;;;;;;;;4803060;29;20182;-73
2021/12/27 07:30:30;;;;;;;38.40;21.90;;;;;;;;;;4795962;29;20127;-74
2021/12/27 07:32:58;;;;;;;39.95;22.75;;;;;;;;;;4808634;29;20147;-74
2021/12/27 07:35:26;;;;;;;47.83;26.25;;;;;;;;;;4800319;29;20130;-74
2021/12/27 07:37:53;;;;;;;47.38;25.10;;;;;;;;;;4805916;29;20065;-74
2021/12/27 07:40:25;;;;;;;42.13;24.98;;;;;;;;;;4802782;29;20526;-74
2021/12/27 07:42:53;;;;;;;41.03;25.02;;;;;;;;;;4802831;29;20419;-74
2021/12/27 07:45:20;;;;;;;37.15;21.92;;;;;;;;;;4803092;29;20160;-74
2021/12/27 07:47:48;;;;;;;41.53;23.45;;;;;;;;;;4801547;29;20050;-74
2021/12/27 07:50:15;;;;;;;39.15;23.40;;;;;;;;;;4800682;29;20092;-74
2021/12/27 07:52:47;;;;;;;38.67;21.27;;;;;;;;;;4802112;29;20053;-73
2021/12/27 07:55:14;;;;;;;45.72;25.15;;;;;;;;;;4800561;29;20047;-74
2021/12/27 07:57:42;;;;;;;41.55;24.45;;;;;;;;;;4802341;29;20051;-73
2021/12/27 08:00:10;;;;;;;56.28;27.80;;;;;;;;;;4800784;29;20086;-74
2021/12/27 08:02:37;;;;;;;46.42;25.30;;;;;;;;;;4799796;29;20039;-74
2021/12/27 08:05:05;;;;;;;46.22;26.10;;;;;;;;;;4800091;29;20409;-74
2021/12/27 08:07:33;;;;;;;43.47;24.35;;;;;;;;;;4801963;29;20051;-74
2021/12/27 08:10:00;;;;;;;42.33;24.48;;;;;;;;;;4803087;29;20096;-74
2021/12/27 08:12:27;;;;;;;46.33;24.83;;;;;;;;;;4802030;29;20081;-74
2021/12/27 08:14:55;;;;;;;44.15;25.30;;;;;;;;;;4799299;29;20051;-74
2021/12/27 08:17:22;;;;;;;45.88;24.52;;;;;;;;;;4802922;29;20065;-74
2021/12/27 08:19:49;;;;;;;40.15;23.40;;;;;;;;;;4801980;29;20133;-74
2021/12/27 08:22:17;;;;;;;40.58;23.13;;;;;;;;;;4800748;29;20352;-74
2021/12/27 08:24:49;;;;;;;46.00;25.95;;;;;;;;;;4802917;29;20058;-74
2021/12/27 08:27:18;;;;;;;38.72;23.05;;;;;;;;;;4802037;29;20533;-74
2021/12/27 08:29:45;;;;;;;41.38;24.38;;;;;;;;;;4812443;29;20126;-74
2021/12/27 08:32:13;;;;;;;42.45;23.92;;;;;;;;;;4802636;29;20042;-73
2021/12/27 08:34:41;;;;;;;39.00;22.88;;;;;;;;;;4800391;29;20450;-74
2021/12/27 08:37:08;;;;;;;43.75;24.85;;;;;;;;;;4807239;29;20499;-74
2021/12/27 08:39:38;;;;;;;38.00;23.58;;;;;;;;;;4807081;29;20133;-74
2021/12/27 08:42:10;;;;;;;39.35;21.77;;;;;;;;;;4804330;29;20472;-74
2021/12/27 08:44:38;;;;;;;42.72;24.83;;;;;;;;;;4802555;29;20049;-74
2021/12/27 08:47:06;;;;;;;40.22;22.65;;;;;;;;;;4800859;29;20471;-74
2021/12/27 08:49:33;;;;;;;40.78;23.25;;;;;;;;;;4795661;29;20076;-74
2021/12/27 08:52:21;;;;;;;37.58;21.85;;;;;;;;;;4799717;29;20045;-73
2021/12/27 08:54:48;;;;;;;40.28;23.75;;;;;;;;;;4805264;29;20043;-74
2021/12/27 08:57:16;;;;;;;39.83;22.38;;;;;;;;;;4803055;29;20043;-74
2021/12/27 08:59:43;;;;;;;38.00;22.30;;;;;;;;;;4800435;29;20141;-74
2021/12/27 09:02:12;;;;;;;38.58;21.38;;;;;;;;;;4803510;29;20054;-74
2021/12/27 09:04:39;;;;;;;43.70;23.90;;;;;;;;;;4802523;29;20051;-73
2021/12/27 09:07:08;;;;;;;42.08;22.90;;;;;;;;;;4807106;29;20043;-74
2021/12/27 09:09:35;;;;;;;40.25;23.75;;;;;;;;;;4805534;29;20519;-73
2021/12/27 09:12:03;;;;;;;39.25;23.27;;;;;;;;;;4805207;29;20073;-74
2021/12/27 09:14:30;;;;;;;42.15;23.13;;;;;;;;;;4801970;29;20181;-74
2021/12/27 09:16:59;;;;;;;37.47;22.60;;;;;;;;;;4807410;29;20107;-74
2021/12/27 09:19:26;;;;;;;37.60;23.40;;;;;;;;;;4802545;29;20057;-74
2021/12/27 09:21:53;;;;;;;38.55;22.35;;;;;;;;;;4804132;29;20066;-73
2021/12/27 09:24:21;;;;;;;38.67;23.35;;;;;;;;;;4786616;29;20404;-73
2021/12/27 09:26:48;;;;;;;37.17;23.52;;;;;;;;;;4805323;29;20403;-74
2021/12/27 09:29:16;;;;;;;46.30;27.48;;;;;;;;;;4809425;29;20414;-73
2021/12/27 09:31:43;;;;;;;43.95;25.67;;;;;;;;;;4811506;29;20490;-74
2021/12/27 09:34:11;;;;;;;41.80;23.77;;;;;;;;;;4808262;29;20043;-73
2021/12/27 09:36:39;;;;;;;41.03;24.38;;;;;;;;;;4801434;29;20047;-73
2021/12/27 09:39:06;;;;;;;39.97;22.23;;;;;;;;;;4802568;29;20092;-74
2021/12/27 09:41:33;;;;;;;37.25;22.17;;;;;;;;;;4803007;29;20811;-74
2021/12/27 09:44:01;;;;;;;39.42;24.10;;;;;;;;;;4802632;29;20051;-73
2021/12/27 09:46:28;;;;;;;41.38;23.45;;;;;;;;;;4800111;29;20423;-74
2021/12/27 09:48:58;;;;;;;36.47;22.00;;;;;;;;;;4801993;29;20047;-74
2021/12/27 09:51:26;;;;;;;38.33;21.20;;;;;;;;;;4806362;29;20133;-74
2021/12/27 09:53:53;;;;;;;37.00;21.10;;;;;;;;;;4803054;29;20053;-74
2021/12/27 09:56:21;;;;;;;40.83;22.20;;;;;;;;;;4802444;29;20129;-73
2021/12/27 09:58:50;;;;;;;39.00;22.73;;;;;;;;;;4802921;29;20058;-74
2021/12/27 10:01:18;;;;;;;43.78;22.98;;;;;;;;;;4803608;29;20054;-74
2021/12/27 10:03:50;;;;;;;41.85;23.88;;;;;;;;;;4802539;29;20050;-73
2021/12/27 10:06:20;;;;;;;39.42;21.58;;;;;;;;;;4801128;29;20053;-73
2021/12/27 10:08:52;;;;;;;44.50;27.02;;;;;;;;;;4801513;29;20061;-74
2021/12/27 10:11:20;;;;;;;42.40;24.42;;;;;;;;;;4799828;29;20425;-74
2021/12/27 10:14:17;;;;;;;40.83;23.45;;;;;;;;;;4802710;29;20052;-74
2021/12/27 10:16:50;;;;;;;38.47;22.83;;;;;;;;;;4799122;29;20039;-74
2021/12/27 10:19:20;;;;;;;45.97;25.35;;;;;;;;;;4800320;29;20062;-73
2021/12/27 10:21:49;;;;;;;40.13;23.70;;;;;;;;;;4800749;29;20496;-74
2021/12/27 10:24:18;;;;;;;44.47;25.02;;;;;;;;;;4804645;29;20049;-74
2021/12/27 10:26:50;;;;;;;41.58;23.90;;;;;;;;;;4801807;29;20077;-74
2021/12/27 10:29:27;;;;;;;44.00;24.00;;;;;;;;;;4801268;29;20163;-74
2021/12/27 10:32:06;;;;;;;44.90;25.05;;;;;;;;;;4813245;29;20042;-73
2021/12/27 10:34:52;;;;;;;41.17;23.75;;;;;;;;;;4799079;29;20051;-73
2021/12/27 10:37:42;;;;;;;41.63;24.17;;;;;;;;;;4806262;29;20049;-73
2021/12/27 10:40:11;;;;;;;38.80;23.55;;;;;;;;;;4810368;29;20050;-73
2021/12/27 10:42:44;;;;;;;38.85;23.88;;;;;;;;;;4802684;29;20135;-73
2021/12/27 10:45:21;;;;;;;38.83;22.27;;;;;;;;;;4804705;29;21059;-73
2021/12/27 10:47:55;;;;;;;38.45;22.88;;;;;;;;;;4807290;29;20058;-73
2021/12/27 10:50:26;;;;;;;37.92;23.27;;;;;;;;;;4805785;29;20125;-74
2021/12/27 10:52:55;;;;;;;38.80;22.77;;;;;;;;;;4803786;29;20047;-73
2021/12/27 10:55:27;;;;;;;41.00;23.27;;;;;;;;;;4806171;29;20507;-73
2021/12/27 10:58:09;;;;;;;35.88;21.83;;;;;;;;;;4802695;29;20047;-73
2021/12/27 11:00:37;;;;;;;40.58;23.80;;;;;;;;;;4827424;29;20405;-73
2021/12/27 11:03:05;;;;;;;42.65;24.48;;;;;;;;;;4801976;29;20070;-73
2021/12/27 11:05:34;;;;;;;42.42;23.75;;;;;;;;;;4803921;29;20074;-73
2021/12/27 11:08:03;;;;;;;37.22;22.50;;;;;;;;;;4809125;29;20074;-73
2021/12/27 11:10:32;;;;;;;41.22;22.98;;;;;;;;;;4816809;29;20515;-73
2021/12/27 11:13:01;;;;;;;37.83;21.58;;;;;;;;;;4804399;29;20078;-73
2021/12/27 11:15:32;;;;;;;41.60;23.30;;;;;;;;;;4806323;29;20134;-73
2021/12/27 11:18:00;;;;;;;36.53;22.35;;;;;;;;;;4802422;29;20051;-73
2021/12/27 11:20:27;;;;;;;33.22;20.85;;;;;;;;;;4804478;29;20047;-73
2021/12/27 11:22:58;;;;;;;36.58;21.75;;;;;;;;;;4807579;29;20134;-73
2021/12/27 11:25:58;;;;;;;34.08;20.65;;;;;;;;;;4803295;29;20051;-73
2021/12/27 11:28:25;;;;;;;35.92;20.48;;;;;;;;;;4788379;29;20046;-73
2021/12/27 11:30:52;;;;;;;38.17;21.63;;;;;;;;;;4792532;29;20055;-73
2021/12/27 11:33:22;;;;;;;36.25;20.70;;;;;;;;;;4782887;29;20154;-73
2021/12/27 11:35:52;;;;;;;40.80;22.27;;;;;;;;;;4784169;30;20147;-74
2021/12/27 11:38:40;;;;;;;37.42;19.92;;;;;;;;;;4768277;29;20102;-73
2021/12/27 11:41:27;;;;;;;36.30;21.38;;;;;;;;;;4783431;29;20116;-73
2021/12/27 11:43:55;;;;;;;40.22;22.63;;;;;;;;;;4781908;29;20513;-73
2021/12/27 11:46:30;;;;;;;41.30;23.52;;;;;;;;;;4782087;29;20508;-73
2021/12/27 11:48:59;;;;;;;38.47;22.05;;;;;;;;;;4782111;29;20056;-73
2021/12/27 11:51:31;;;;;;;43.42;24.38;;;;;;;;;;4764075;30;20084;-73
2021/12/27 11:54:01;;;;;;;40.75;23.38;;;;;;;;;;4765293;30;20062;-73
2021/12/27 11:56:37;;;;;;;40.47;19.42;;;;;;;;;;4764870;30;20040;-73
2021/12/27 11:59:23;;;;;;;38.33;23.17;;;;;;;;;;4765793;30;20060;-73
2021/12/27 12:01:51;;;;;;;40.25;22.70;;;;;;;;;;4763163;30;20485;-73
2021/12/27 12:04:37;;;;;;;38.30;22.90;;;;;;;;;;4773249;29;20069;-73
2021/12/27 12:07:05;;;;;;;36.58;22.08;;;;;;;;;;4780324;29;20055;-73
2021/12/27 12:09:32;;;;;;;39.42;22.13;;;;;;;;;;4782943;29;20047;-73
2021/12/27 12:12:01;;;;;;;37.65;21.15;;;;;;;;;;4786001;29;20108;-73
2021/12/27 12:14:36;;;;;;;40.88;23.38;;;;;;;;;;4792152;29;20108;-73
2021/12/27 12:17:06;;;;;;;38.35;22.08;;;;;;;;;;4770199;29;20051;-73
2021/12/27 12:19:36;;;;;;;39.35;22.27;;;;;;;;;;4783160;29;20152;-72
2021/12/27 12:22:04;;;;;;;30.77;17.73;;;;;;;;;;4786939;29;20059;-73
2021/12/27 12:24:31;;;;;;;40.42;22.98;;;;;;;;;;4804772;29;20129;-73
2021/12/27 12:27:00;;;;;;;42.47;23.75;;;;;;;;;;4805842;29;20051;-71
2021/12/27 12:29:29;;;;;;;41.58;22.90;;;;;;;;;;4801018;29;20047;-71
2021/12/27 12:32:01;;;;;;;41.88;22.02;;;;;;;;;;4828394;24;20042;-71
2021/12/27 12:34:28;;;;;;;43.15;22.13;;;;;;;;;;4791958;29;20047;-71
2021/12/27 12:36:56;;;;;;;42.90;24.00;;;;;;;;;;4789108;29;20043;-71
2021/12/27 12:39:24;;;;;;;44.45;24.08;;;;;;;;;;4784235;29;20055;-71
2021/12/27 12:42:04;;;;;;;42.00;23.98;;;;;;;;;;4781520;29;20154;-71
2021/12/27 12:44:31;;;;;;;41.03;23.20;;;;;;;;;;4784824;29;20053;-72
2021/12/27 12:47:00;;;;;;;42.60;22.15;;;;;;;;;;4782381;29;20055;-71
2021/12/27 12:49:29;;;;;;;47.28;26.85;;;;;;;;;;4782814;29;20049;-71
2021/12/27 12:51:59;;;;;;;42.40;24.65;;;;;;;;;;4782504;29;20055;-72
2021/12/27 12:54:30;;;;;;;49.08;25.70;;;;;;;;;;4783201;29;20516;-71
2021/12/27 12:57:10;;;;;;;45.42;26.45;;;;;;;;;;4816493;29;20070;-71
2021/12/27 12:59:48;;;;;;;47.95;25.65;;;;;;;;;;4776710;29;20051;-72
2021/12/27 13:02:17;;;;;;;47.47;25.10;;;;;;;;;;4782019;29;20051;-71
2021/12/27 13:04:48;;;;;;;46.72;26.00;;;;;;;;;;4781594;29;20174;-71
2021/12/27 13:07:17;;;;;;;46.78;25.52;;;;;;;;;;4784020;29;20055;-71
2021/12/27 13:09:46;;;;;;;46.40;27.05;;;;;;;;;;4781365;29;20047;-72
2021/12/27 13:12:15;;;;;;;52.97;27.77;;;;;;;;;;4783275;29;20054;-71
2021/12/27 13:14:42;;;;;;;48.08;26.80;;;;;;;;;;4811656;29;20058;-72
2021/12/27 13:17:18;;;;;;;47.88;26.67;;;;;;;;;;4782607;29;20043;-71
2021/12/27 13:20:02;;;;;;;43.85;26.10;;;;;;;;;;4785233;29;20043;-71
2021/12/27 13:22:41;;;;;;;45.10;26.05;;;;;;;;;;4781599;29;20044;-71
2021/12/27 13:25:09;;;;;;;48.05;26.48;;;;;;;;;;4784287;29;20090;-71
2021/12/27 13:27:37;;;;;;;49.42;25.95;;;;;;;;;;4783327;29;20588;-72
2021/12/27 13:30:06;;;;;;;50.05;26.67;;;;;;;;;;4783218;29;20074;-72
2021/12/27 13:32:33;;;;;;;50.90;28.30;;;;;;;;;;4780583;29;20047;-72
2021/12/27 13:35:01;;;;;;;47.97;27.27;;;;;;;;;;4795569;29;20120;-72
2021/12/27 13:37:29;;;;;;;46.53;25.50;;;;;;;;;;4782325;29;20047;-72
2021/12/27 13:40:22;;;;;;;50.17;27.17;;;;;;;;;;4796996;29;20055;-72
2021/12/27 13:42:50;;;;;;;46.33;25.77;;;;;;;;;;4775868;30;20066;-72
2021/12/27 13:45:18;;;;;;;42.60;25.95;;;;;;;;;;4809981;29;20389;-72
2021/12/27 13:47:54;;;;;;;53.00;28.38;;;;;;;;;;4779947;29;20412;-72
2021/12/27 13:50:26;;;;;;;68.32;42.08;;;;;;;;;;4781638;29;20065;-72
2021/12/27 13:52:54;;;;;;;62.05;37.72;;;;;;;;;;4779847;29;20130;-72
2021/12/27 13:55:23;;;;;;;51.45;28.92;;;;;;;;;;4781451;29;20511;-72
2021/12/27 13:57:50;;;;;;;52.08;28.10;;;;;;;;;;4781433;29;20079;-72
2021/12/27 14:00:24;;;;;;;48.30;26.23;;;;;;;;;;4781203;29;20119;-72
2021/12/27 14:02:53;;;;;;;49.00;27.77;;;;;;;;;;4783106;29;20401;-72
2021/12/27 14:05:31;;;;;;;49.83;27.55;;;;;;;;;;4781732;29;20054;-72
2021/12/27 14:08:11;;;;;;;51.47;26.88;;;;;;;;;;4799298;29;20130;-72
2021/12/27 14:10:39;;;;;;;47.38;25.48;;;;;;;;;;4779712;29;20431;-72
2021/12/27 14:13:06;;;;;;;50.47;26.45;;;;;;;;;;4788499;29;20042;-72
2021/12/27 14:15:37;;;;;;;49.15;26.60;;;;;;;;;;4790414;29;20525;-72
2021/12/27 14:18:08;;;;;;;49.28;25.05;;;;;;;;;;4809445;29;20047;-72
2021/12/27 14:20:36;;;;;;;47.85;24.52;;;;;;;;;;4776104;29;20039;-72
2021/12/27 14:23:11;;;;;;;48.63;26.33;;;;;;;;;;4779909;29;20150;-72
2021/12/27 14:25:39;;;;;;;49.90;27.08;;;;;;;;;;4783001;29;20054;-72
2021/12/27 14:28:11;;;;;;;50.25;27.48;;;;;;;;;;4782455;29;20047;-72
2021/12/27 14:30:40;;;;;;;46.60;25.67;;;;;;;;;;4782653;29;20139;-72
2021/12/27 14:33:09;;;;;;;53.00;28.15;;;;;;;;;;4781846;29;20043;-72
2021/12/27 14:35:41;;;;;;;49.63;27.25;;;;;;;;;;4788740;29;20074;-72
2021/12/27 14:38:25;;;;;;;50.63;28.25;;;;;;;;;;4779800;29;20423;-72